Accueil
METAR-TAF:

METAR-TAF

Aéroports :

Aéroport de Toussus-le-Noble

Toussus-le-Noble, France

latitude: 48-46N, longitude: 002-06E, altitude: 164 m

Observation

Le bulletin a été fait il y a 10 minutes, à 15:00 UTC
Vent 4 kt de nord/nord-ouest
Température 5°C
Humidité 75%
Pression 1036 hPa
Visibilité 10 km ou plus
Ciel couvert à une hauteur de 1700 ft

METAR: LFPN 221500Z AUTO 33004KT 9999 OVC017 05/01 Q1036 NOSIG

Heure: 16:10 (15:10 UTC)

Prévision

Le bulletin a été fait il y a 1 heure et 10 minutes, à 14:00 UTC
Prévision valable du 22 à 15 UTC au 22 à 24 UTC
Vent 5 kt de nord
Visibilité 10 km ou plus
Nuages fragmentés à une hauteur de 1700 ft
Probabilité 30% :
Temporairement
du 22 à 17 UTC au 22 à 24 UTC
Nuages fragmentés à une hauteur de 1200 ft

TAF: LFPN 221400Z 2215/2224 36005KT 9999 BKN017 PROB30 TEMPO 2217/2224 BKN012

Observations et prévisions météorologiques de plus de 4000 aéroports (messages METAR et TAF).

Les stations disponibles sont représentées par des disques jaunes et rouges sur la carte.

Passer la souris dessus pour voir le nom de la station.

Cliquer dessus pour voir les observations et prévisions météorologiques.

Pour changer de carte: cliquez sur les boutons verts avec une croix noire pour zoomer, sur le bouton vert avec un tiret pour effectuer un zoom arrière, ou sur les flèches vertes pour les cartes adjacentes.


METAR-TAF: